createdAt,value
2022-09-24T00:00:10.370Z,46.27
2022-09-24T00:03:14.041Z,43.83
2022-09-24T00:06:19.305Z,43.23
2022-09-24T00:09:24.668Z,42.93
2022-09-24T00:12:28.893Z,42.70
2022-09-24T00:15:32.669Z,40.67
2022-09-24T00:18:37.295Z,44.10
2022-09-24T00:21:42.456Z,47.83
2022-09-24T00:25:04.635Z,44.13
2022-09-24T00:28:09.127Z,45.40
2022-09-24T00:31:12.765Z,42.20
2022-09-24T00:34:16.551Z,43.27
2022-09-24T00:37:20.494Z,43.90
2022-09-24T00:40:31.049Z,47.03
2022-09-24T00:43:39.163Z,46.70
2022-09-24T00:46:45.454Z,51.43
2022-09-24T00:49:52.024Z,48.60
2022-09-24T00:53:02.266Z,52.17
2022-09-24T00:56:12.557Z,54.70
2022-09-24T00:59:19.519Z,52.60
2022-09-24T01:02:24.453Z,55.57
2022-09-24T01:05:28.196Z,54.83
2022-09-24T01:08:31.841Z,53.03
2022-09-24T01:11:54.786Z,56.43
2022-09-24T01:15:15.472Z,55.83
2022-09-24T01:18:36.289Z,55.87
2022-09-24T01:21:50.867Z,55.93
2022-09-24T01:25:03.461Z,58.97
2022-09-24T01:28:34.719Z,59.97
2022-09-24T01:31:47.328Z,63.10
2022-09-24T01:34:58.369Z,63.80
2022-09-24T01:38:06.933Z,66.20
2022-09-24T01:41:16.128Z,64.10
2022-09-24T01:44:20.148Z,65.93
2022-09-24T01:47:34.879Z,69.33
2022-09-24T01:50:49.930Z,66.83
2022-09-24T01:54:03.711Z,67.63
2022-09-24T01:57:14.555Z,65.27
2022-09-24T02:00:22.421Z,68.83
2022-09-24T02:03:35.707Z,68.10
2022-09-24T02:06:47.852Z,74.80
2022-09-24T02:09:51.735Z,70.03
2022-09-24T02:13:04.695Z,70.57
2022-09-24T02:16:16.280Z,66.60
2022-09-24T02:19:29.609Z,65.40
2022-09-24T02:22:34.716Z,72.67
2022-09-24T02:25:44.828Z,74.60
2022-09-24T02:28:48.615Z,74.53
2022-09-24T02:31:57.281Z,78.23
2022-09-24T02:35:07.764Z,75.10
2022-09-24T02:38:17.939Z,78.80
2022-09-24T02:41:24.114Z,76.43
2022-09-24T02:44:28.594Z,87.43
2022-09-24T02:47:32.425Z,78.80
2022-09-24T02:50:37.461Z,79.80
2022-09-24T02:53:41.055Z,78.33
2022-09-24T02:56:44.791Z,80.77
2022-09-24T02:59:48.753Z,81.03
2022-09-24T03:02:52.524Z,81.30
2022-09-24T03:05:57.653Z,78.87
2022-09-24T03:09:03.550Z,82.97
2022-09-24T03:12:07.218Z,83.03
2022-09-24T03:15:12.339Z,83.37
2022-09-24T03:18:16.307Z,75.80
2022-09-24T03:21:23.658Z,69.37
2022-09-24T03:24:27.332Z,71.67
2022-09-24T03:27:30.923Z,70.57
2022-09-24T03:30:52.027Z,72.27
2022-09-24T03:33:55.977Z,72.87
2022-09-24T03:37:00.981Z,70.47
2022-09-24T03:40:07.005Z,67.77
2022-09-24T03:43:10.890Z,67.87
2022-09-24T03:46:17.426Z,62.33
2022-09-24T03:49:21.181Z,64.43
2022-09-24T03:52:27.591Z,60.97
2022-09-24T03:55:31.290Z,61.43
2022-09-24T03:58:38.049Z,53.67
2022-09-24T04:01:41.750Z,51.20
2022-09-24T04:04:45.339Z,51.93
2022-09-24T04:07:50.254Z,52.97
2022-09-24T04:10:55.602Z,54.23
2022-09-24T04:13:59.644Z,49.90
2022-09-24T04:17:03.838Z,50.17
2022-09-24T04:20:09.173Z,47.57
2022-09-24T04:23:14.963Z,65.70
2022-09-24T04:26:18.868Z,53.33
2022-09-24T04:29:22.505Z,46.80
2022-09-24T04:32:26.076Z,50.27
2022-09-24T04:35:33.045Z,48.00
2022-09-24T04:38:38.147Z,50.23
2022-09-24T04:41:41.751Z,47.50
2022-09-24T04:44:47.857Z,50.97
2022-09-24T04:47:53.527Z,52.07
2022-09-24T04:50:57.430Z,49.07
2022-09-24T04:54:02.897Z,54.73
2022-09-24T04:57:06.520Z,51.70
2022-09-24T05:00:16.097Z,46.90
2022-09-24T05:03:21.321Z,51.43
2022-09-24T05:06:24.914Z,51.10
2022-09-24T05:09:30.219Z,61.33
2022-09-24T05:12:35.411Z,58.60
2022-09-24T05:15:42.991Z,56.70
2022-09-24T05:18:46.918Z,56.80
2022-09-24T05:21:50.875Z,55.70
2022-09-24T05:24:55.900Z,54.63
2022-09-24T05:27:58.975Z,63.43
2022-09-24T05:31:02.920Z,65.73
2022-09-24T05:34:06.816Z,68.60
2022-09-24T05:37:11.829Z,72.03
2022-09-24T05:40:35.313Z,66.27
2022-09-24T05:43:38.941Z,70.23
2022-09-24T05:46:42.571Z,66.93
2022-09-24T05:49:46.116Z,68.80
2022-09-24T05:52:49.781Z,67.17
2022-09-24T05:55:54.969Z,71.80
2022-09-24T05:59:00.942Z,69.73
2022-09-24T06:02:04.956Z,72.10
2022-09-24T06:05:10.167Z,67.07
2022-09-24T06:08:15.416Z,69.90
2022-09-24T06:11:22.474Z,67.23
2022-09-24T06:14:26.190Z,70.10
2022-09-24T06:17:31.679Z,68.07
2022-09-24T06:20:35.379Z,60.97
2022-09-24T06:23:40.689Z,66.97
2022-09-24T06:26:45.671Z,63.00
2022-09-24T06:29:49.394Z,66.87
2022-09-24T06:32:52.991Z,63.33
2022-09-24T06:35:56.508Z,65.97
2022-09-24T06:39:00.297Z,61.77
2022-09-24T06:42:05.594Z,61.13
2022-09-24T06:45:10.726Z,58.77
2022-09-24T06:48:16.224Z,54.13
2022-09-24T06:51:19.783Z,55.67
2022-09-24T06:54:23.565Z,52.83
2022-09-24T06:57:29.155Z,54.03
2022-09-24T07:00:33.059Z,51.23
2022-09-24T07:03:39.137Z,54.07
2022-09-24T07:07:00.056Z,53.77
2022-09-24T07:10:06.879Z,54.17
2022-09-24T07:13:13.301Z,46.87
2022-09-24T07:16:17.088Z,52.00
2022-09-24T07:19:20.907Z,54.00
2022-09-24T07:22:24.815Z,57.10
2022-09-24T07:25:28.398Z,50.03
2022-09-24T07:28:33.335Z,53.23
2022-09-24T07:31:37.012Z,57.13
2022-09-24T07:34:42.023Z,56.43
2022-09-24T07:37:45.657Z,61.37
2022-09-24T07:40:49.474Z,57.40
2022-09-24T07:43:55.700Z,63.07
2022-09-24T07:46:59.373Z,60.43
2022-09-24T07:50:02.935Z,59.07
2022-09-24T07:53:07.436Z,58.40
2022-09-24T07:56:11.261Z,61.30
2022-09-24T07:59:16.419Z,54.70
2022-09-24T08:02:20.695Z,61.43
2022-09-24T08:05:24.338Z,58.07
2022-09-24T08:08:28.131Z,58.10
2022-09-24T08:11:32.017Z,52.40
2022-09-24T08:14:37.143Z,54.07
2022-09-24T08:17:40.752Z,56.90
2022-09-24T08:20:44.377Z,61.47
2022-09-24T08:23:48.275Z,57.17
2022-09-24T08:26:51.875Z,57.27
2022-09-24T08:29:57.876Z,60.63
2022-09-24T08:33:01.582Z,60.37
2022-09-24T08:36:09.034Z,60.07
2022-09-24T08:39:13.775Z,64.23
2022-09-24T08:42:32.723Z,62.33
2022-09-24T08:46:05.714Z,64.40
2022-09-24T08:49:17.222Z,68.03
2022-09-24T08:52:37.299Z,69.10
2022-09-24T08:55:47.180Z,73.40
2022-09-24T08:58:57.990Z,73.80
2022-09-24T09:02:30.159Z,74.17
2022-09-24T09:05:55.375Z,79.57
2022-09-24T09:09:12.520Z,84.53
2022-09-24T09:12:23.078Z,83.30
2022-09-24T09:15:35.469Z,83.90
2022-09-24T09:18:46.352Z,84.10
2022-09-24T09:21:57.551Z,90.07
2022-09-24T09:25:24.025Z,79.07
2022-09-24T09:28:29.055Z,79.70
2022-09-24T09:31:55.325Z,79.57
2022-09-24T09:35:15.303Z,78.43
2022-09-24T09:38:26.285Z,80.27
2022-09-24T09:41:41.578Z,76.00
2022-09-24T09:44:46.347Z,71.87
2022-09-24T09:47:55.646Z,70.13
2022-09-24T09:51:06.213Z,73.33
2022-09-24T09:54:10.301Z,77.83
2022-09-24T09:57:18.214Z,74.57
2022-09-24T10:00:29.309Z,77.43
2022-09-24T10:03:40.664Z,67.23
2022-09-24T10:06:45.636Z,75.93
2022-09-24T10:10:05.337Z,70.37
2022-09-24T10:13:13.599Z,73.57
2022-09-24T10:16:17.405Z,64.73
2022-09-24T10:19:24.686Z,58.93
2022-09-24T10:22:32.082Z,63.17
2022-09-24T10:25:36.633Z,60.33
2022-09-24T10:29:05.143Z,68.67
2022-09-24T10:32:18.624Z,64.27
2022-09-24T10:35:28.764Z,69.13
2022-09-24T10:38:34.000Z,69.97
2022-09-24T10:41:37.753Z,71.70
2022-09-24T10:44:41.498Z,67.07
2022-09-24T10:47:58.720Z,65.00
2022-09-24T10:51:18.002Z,62.53
2022-09-24T10:54:44.713Z,62.27
2022-09-24T10:58:02.852Z,70.70
2022-09-24T11:01:19.405Z,60.53
2022-09-24T11:04:48.528Z,65.83
2022-09-24T11:08:13.643Z,64.37
2022-09-24T11:11:37.178Z,61.33
2022-09-24T11:15:04.359Z,59.50
2022-09-24T11:18:32.320Z,60.23
2022-09-24T11:22:00.240Z,58.77
2022-09-24T11:25:26.195Z,57.50
2022-09-24T11:29:08.225Z,55.43
2022-09-24T11:32:26.381Z,59.60
2022-09-24T11:35:57.335Z,62.30
2022-09-24T11:39:21.386Z,55.90
2022-09-24T11:42:31.845Z,62.33
2022-09-24T11:46:02.226Z,53.70
2022-09-24T11:49:41.656Z,51.60
2022-09-24T11:52:51.498Z,79.03
2022-09-24T11:56:02.643Z,61.77
2022-09-24T11:59:18.508Z,53.00
2022-09-24T12:02:31.720Z,49.07
2022-09-24T12:05:41.540Z,45.70
2022-09-24T12:08:54.860Z,49.33
2022-09-24T12:12:08.533Z,51.93
2022-09-24T12:15:25.504Z,46.27
2022-09-24T12:18:37.812Z,48.93
2022-09-24T12:21:45.920Z,52.13
2022-09-24T12:24:54.607Z,51.70
2022-09-24T12:28:00.396Z,50.20
2022-09-24T12:31:31.829Z,50.70
2022-09-24T12:34:50.882Z,52.67
2022-09-24T12:38:04.742Z,56.43
2022-09-24T12:41:32.959Z,51.63
2022-09-24T12:44:45.847Z,51.33
2022-09-24T12:47:55.465Z,51.93
2022-09-24T12:51:04.340Z,50.13
2022-09-24T12:54:21.949Z,54.43
2022-09-24T12:57:29.900Z,53.33
2022-09-24T13:00:42.043Z,51.80
2022-09-24T13:03:47.430Z,54.37
2022-09-24T13:06:53.496Z,55.60
2022-09-24T13:09:57.084Z,54.80
2022-09-24T13:13:01.964Z,47.10
2022-09-24T13:16:08.831Z,43.10
2022-09-24T13:19:31.554Z,46.27
2022-09-24T13:22:39.035Z,45.50
2022-09-24T13:25:42.764Z,43.60
2022-09-24T13:28:57.732Z,38.67
2022-09-24T13:32:04.647Z,37.70
2022-09-24T13:35:22.006Z,39.97
2022-09-24T13:38:32.694Z,38.93
2022-09-24T13:41:51.472Z,36.20
2022-09-24T13:44:58.436Z,36.70
2022-09-24T13:48:06.479Z,34.97
2022-09-24T13:51:15.324Z,36.30
2022-09-24T13:54:27.112Z,37.77
2022-09-24T13:57:31.451Z,33.90
2022-09-24T14:00:43.751Z,34.03
2022-09-24T14:03:55.892Z,33.20
2022-09-24T14:07:03.888Z,32.33
2022-09-24T14:10:15.669Z,37.67
2022-09-24T14:13:22.547Z,34.03
2022-09-24T14:16:27.644Z,36.00
2022-09-24T14:19:34.177Z,35.47
2022-09-24T14:22:44.424Z,33.90
2022-09-24T14:25:51.399Z,39.57
2022-09-24T14:28:57.112Z,38.97
2022-09-24T14:32:05.302Z,42.00
2022-09-24T14:35:19.650Z,42.37
2022-09-24T14:38:29.569Z,38.87
2022-09-24T14:41:37.503Z,42.40
2022-09-24T14:44:46.889Z,39.93
2022-09-24T14:48:02.541Z,42.27
2022-09-24T14:51:06.315Z,38.73
2022-09-24T14:54:29.131Z,40.47
2022-09-24T14:57:43.331Z,62.60
2022-09-24T15:00:55.255Z,47.00
2022-09-24T15:04:03.401Z,46.10
2022-09-24T15:07:07.188Z,90.00
2022-09-24T15:10:23.932Z,46.00
2022-09-24T15:13:34.756Z,61.20
2022-09-24T15:16:38.345Z,55.47
2022-09-24T15:19:43.979Z,73.83
2022-09-24T15:22:48.895Z,53.43
2022-09-24T15:25:52.564Z,44.07
2022-09-24T15:28:59.270Z,47.20
2022-09-24T15:32:04.051Z,44.60
2022-09-24T15:35:09.610Z,45.73
2022-09-24T15:38:17.677Z,47.33
2022-09-24T15:41:22.072Z,48.20
2022-09-24T15:44:33.652Z,48.67
2022-09-24T15:47:37.904Z,43.47
2022-09-24T15:50:43.261Z,42.17
2022-09-24T15:53:47.323Z,43.57
2022-09-24T15:56:52.504Z,38.67
2022-09-24T15:59:57.733Z,44.83
2022-09-24T16:03:03.024Z,46.50
2022-09-24T16:06:06.999Z,51.23
2022-09-24T16:09:10.712Z,52.30
2022-09-24T16:12:17.003Z,41.70
2022-09-24T16:15:22.222Z,41.03
2022-09-24T16:18:26.891Z,40.27
2022-09-24T16:21:30.991Z,37.97
2022-09-24T16:24:35.147Z,40.17
2022-09-24T16:27:39.136Z,44.63
2022-09-24T16:30:44.122Z,41.27
2022-09-24T16:33:48.706Z,41.93
2022-09-24T16:36:52.385Z,40.97
2022-09-24T16:39:56.112Z,42.17
2022-09-24T16:43:00.086Z,42.77
2022-09-24T16:46:08.705Z,41.47
2022-09-24T16:49:12.799Z,39.53
2022-09-24T16:52:16.405Z,72.30
2022-09-24T16:55:20.005Z,58.90
2022-09-24T16:58:23.534Z,48.30
2022-09-24T17:01:28.596Z,52.70
2022-09-24T17:04:32.536Z,167.70
2022-09-24T17:07:36.384Z,56.10
2022-09-24T17:10:43.011Z,60.80
2022-09-24T17:13:47.594Z,53.97
2022-09-24T17:16:52.564Z,50.83
2022-09-24T17:19:56.172Z,59.50
2022-09-24T17:22:59.756Z,45.20
2022-09-24T17:26:05.081Z,41.87
2022-09-24T17:29:08.811Z,41.43
2022-09-24T17:32:13.935Z,42.13
2022-09-24T17:35:18.795Z,39.90
2022-09-24T17:38:23.400Z,44.47
2022-09-24T17:41:28.868Z,49.27
2022-09-24T17:44:32.463Z,45.87
2022-09-24T17:47:51.306Z,44.03
2022-09-24T17:50:56.496Z,57.63
2022-09-24T17:54:02.432Z,45.90
2022-09-24T17:57:06.273Z,59.27
2022-09-24T18:00:11.959Z,50.07
2022-09-24T18:03:17.489Z,44.33
2022-09-24T18:06:21.223Z,46.00
2022-09-24T18:09:24.876Z,42.17
2022-09-24T18:12:28.450Z,42.03
2022-09-24T18:15:36.647Z,45.20
2022-09-24T18:18:43.231Z,43.33
2022-09-24T18:21:49.336Z,48.00
2022-09-24T18:24:52.949Z,45.97
2022-09-24T18:28:00.978Z,48.07
2022-09-24T18:31:05.656Z,49.00
2022-09-24T18:34:14.861Z,44.90
2022-09-24T18:37:18.542Z,42.70
2022-09-24T18:40:22.233Z,44.57
2022-09-24T18:43:25.906Z,43.17
2022-09-24T18:46:32.586Z,47.43
2022-09-24T18:49:37.602Z,46.43
2022-09-24T18:52:41.321Z,41.67
2022-09-24T18:55:45.176Z,40.37
2022-09-24T18:58:48.863Z,42.60
2022-09-24T19:01:52.975Z,44.10
2022-09-24T19:04:58.078Z,46.40
2022-09-24T19:08:01.891Z,48.83
2022-09-24T19:11:09.336Z,46.00
2022-09-24T19:14:18.057Z,41.93
2022-09-24T19:17:22.291Z,43.50
2022-09-24T19:20:27.372Z,44.30
2022-09-24T19:23:31.049Z,46.07
2022-09-24T19:26:37.423Z,39.83
2022-09-24T19:29:43.173Z,45.40
2022-09-24T19:32:46.940Z,45.87
2022-09-24T19:35:57.907Z,47.30
2022-09-24T19:39:02.846Z,44.03
2022-09-24T19:42:06.728Z,45.73
2022-09-24T19:45:11.550Z,51.77
2022-09-24T19:48:15.149Z,42.53
2022-09-24T19:51:22.546Z,44.07
2022-09-24T19:54:26.198Z,45.63
2022-09-24T19:57:29.764Z,47.93
2022-09-24T20:00:33.723Z,34.13
2022-09-24T20:03:39.127Z,26.27
2022-09-24T20:06:44.135Z,22.97
2022-09-24T20:09:47.785Z,21.53
2022-09-24T20:12:51.978Z,20.20
2022-09-24T20:16:00.965Z,17.27
2022-09-24T20:19:05.389Z,17.33
2022-09-24T20:22:12.831Z,17.73
2022-09-24T20:25:40.256Z,17.13
2022-09-24T20:28:43.011Z,15.07
2022-09-24T20:31:52.373Z,16.37
2022-09-24T20:34:56.056Z,13.87
2022-09-24T20:38:02.354Z,14.13
2022-09-24T20:41:10.748Z,15.47
2022-09-24T20:44:14.936Z,15.63
2022-09-24T20:47:18.558Z,14.83
2022-09-24T20:50:22.579Z,16.60
2022-09-24T20:53:29.668Z,17.93
2022-09-24T20:56:33.301Z,18.17
2022-09-24T20:59:36.934Z,22.13
2022-09-24T21:02:42.022Z,22.57
2022-09-24T21:05:45.839Z,23.27
2022-09-24T21:08:52.413Z,26.13
2022-09-24T21:11:56.029Z,25.90
2022-09-24T21:15:00.093Z,28.73
2022-09-24T21:18:22.145Z,27.20
2022-09-24T21:21:29.868Z,27.13
2022-09-24T21:24:34.925Z,24.53
2022-09-24T21:27:38.866Z,26.23
2022-09-24T21:30:42.454Z,27.20
2022-09-24T21:33:48.546Z,29.57
2022-09-24T21:36:53.198Z,29.23
2022-09-24T21:39:58.133Z,25.97
2022-09-24T21:43:02.224Z,27.57
2022-09-24T21:46:07.623Z,28.93
2022-09-24T21:49:12.501Z,28.60
2022-09-24T21:52:16.221Z,30.67
2022-09-24T21:55:21.161Z,35.27
2022-09-24T21:58:24.943Z,35.10
2022-09-24T22:01:31.261Z,38.67
2022-09-24T22:04:34.913Z,39.47
2022-09-24T22:07:38.936Z,42.80
2022-09-24T22:10:45.203Z,42.37
2022-09-24T22:13:48.788Z,45.53
2022-09-24T22:16:52.796Z,47.53
2022-09-24T22:19:56.413Z,46.60
2022-09-24T22:23:00.107Z,49.73
2022-09-24T22:26:06.623Z,47.57
2022-09-24T22:29:10.369Z,48.60
2022-09-24T22:32:13.955Z,43.30
2022-09-24T22:35:31.665Z,41.20
2022-09-24T22:38:35.990Z,38.07
2022-09-24T22:41:42.945Z,34.80
2022-09-24T22:44:46.532Z,39.30
2022-09-24T22:47:50.199Z,34.07
2022-09-24T22:50:53.852Z,34.17
2022-09-24T22:53:58.916Z,30.27
2022-09-24T22:57:03.890Z,30.17
2022-09-24T23:00:09.347Z,30.73
2022-09-24T23:03:12.881Z,31.50
2022-09-24T23:06:16.679Z,30.57
2022-09-24T23:09:21.071Z,26.10
2022-09-24T23:12:26.038Z,26.50
2022-09-24T23:15:42.923Z,25.20
2022-09-24T23:18:49.463Z,25.93
2022-09-24T23:21:53.029Z,23.77
2022-09-24T23:24:56.610Z,21.97
2022-09-24T23:28:01.684Z,20.47
2022-09-24T23:31:06.624Z,25.13
2022-09-24T23:34:13.004Z,22.60
2022-09-24T23:37:16.739Z,28.27
2022-09-24T23:40:20.389Z,20.73
2022-09-24T23:43:25.747Z,25.33
2022-09-24T23:46:30.731Z,21.87
2022-09-24T23:49:34.462Z,23.73
2022-09-24T23:52:38.053Z,22.80
2022-09-24T23:55:42.640Z,27.77
2022-09-24T23:58:48.344Z,22.47
